createdAt,value
2023-01-17T00:04:06.609Z,-3.95
2023-01-17T00:09:47.696Z,-3.91
2023-01-17T00:15:16.409Z,-3.97
2023-01-17T00:20:58.180Z,-3.88
2023-01-17T00:26:27.347Z,-3.91
2023-01-17T00:31:49.658Z,-3.82
2023-01-17T00:37:11.477Z,-3.83
2023-01-17T00:42:33.317Z,-3.85
2023-01-17T00:48:13.428Z,-3.91
2023-01-17T00:53:53.860Z,-3.79
2023-01-17T00:59:34.320Z,-3.82
2023-01-17T01:05:14.697Z,-3.82
2023-01-17T01:10:55.088Z,-3.82
2023-01-17T01:16:36.462Z,-3.88
2023-01-17T01:22:17.369Z,-3.88
2023-01-17T01:27:58.408Z,-3.88
2023-01-17T01:33:20.948Z,-3.91
2023-01-17T01:38:43.736Z,-3.97
2023-01-17T01:44:06.160Z,-4.07
2023-01-17T01:49:30.102Z,-4.04
2023-01-17T01:54:58.662Z,-3.93
2023-01-17T02:00:26.441Z,-3.94
2023-01-17T02:05:48.883Z,-4.12
2023-01-17T02:11:11.948Z,-4.17
2023-01-17T02:16:51.039Z,-4.04
2023-01-17T02:22:18.856Z,-4.03
2023-01-17T02:28:05.204Z,-4.07
2023-01-17T02:33:40.512Z,-4.12
2023-01-17T02:39:13.566Z,-4.15
2023-01-17T02:44:45.830Z,-4.19
2023-01-17T02:50:13.342Z,-4.26
2023-01-17T02:56:05.660Z,-4.19
2023-01-17T03:01:38.997Z,-4.32
2023-01-17T03:07:09.546Z,-4.32
2023-01-17T03:12:37.122Z,-4.22
2023-01-17T03:18:11.668Z,-4.30
2023-01-17T03:23:37.492Z,-4.26
2023-01-17T03:29:00.218Z,-4.39
2023-01-17T03:34:22.992Z,-4.32
2023-01-17T03:39:45.462Z,-4.38
2023-01-17T03:45:08.106Z,-4.36
2023-01-17T03:50:30.206Z,-4.33
2023-01-17T03:55:52.571Z,-4.34
2023-01-17T04:01:14.598Z,-4.38
2023-01-17T04:06:36.922Z,-4.39
2023-01-17T04:11:59.060Z,-4.38
2023-01-17T04:17:21.684Z,-4.44
2023-01-17T04:22:45.185Z,-4.48
2023-01-17T04:28:22.966Z,-4.46
2023-01-17T04:34:05.521Z,-4.43
2023-01-17T04:39:28.074Z,-4.45
2023-01-17T04:44:50.520Z,-4.46
2023-01-17T04:50:13.328Z,-4.66
2023-01-17T04:55:38.707Z,-4.79
2023-01-17T05:01:08.979Z,-4.65
2023-01-17T05:06:31.172Z,-4.77
2023-01-17T05:11:53.587Z,-4.77
2023-01-17T05:17:16.992Z,-4.80
2023-01-17T05:22:38.980Z,-4.81
2023-01-17T05:28:05.886Z,-4.92
2023-01-17T05:33:28.272Z,-4.95
2023-01-17T05:38:50.540Z,-4.82
2023-01-17T05:44:12.653Z,-4.85
2023-01-17T05:49:35.051Z,-4.91
2023-01-17T05:54:57.888Z,-4.91
2023-01-17T06:00:20.218Z,-4.85
2023-01-17T06:05:43.484Z,-4.84
2023-01-17T06:11:05.960Z,-5.02
2023-01-17T06:16:28.455Z,-4.99
2023-01-17T06:21:50.935Z,-4.96
2023-01-17T06:33:12.299Z,-5.15
2023-01-17T06:38:36.639Z,-5.18
2023-01-17T06:44:01.539Z,-5.25
2023-01-17T06:49:24.080Z,-5.21
2023-01-17T06:54:46.480Z,-5.11
2023-01-17T07:00:09.909Z,-5.23
2023-01-17T07:05:36.257Z,-5.04
2023-01-17T07:11:05.366Z,-5.11
2023-01-17T07:16:27.842Z,-4.98
2023-01-17T07:21:54.813Z,-5.03
2023-01-17T07:27:17.793Z,-5.15
2023-01-17T07:32:43.231Z,-5.22
2023-01-17T07:38:12.144Z,-4.95
2023-01-17T07:43:36.187Z,-5.01
2023-01-17T07:49:01.211Z,-5.13
2023-01-17T07:54:23.422Z,-4.95
2023-01-17T07:59:46.048Z,-4.91
2023-01-17T08:05:09.550Z,-5.08
2023-01-17T08:10:31.939Z,-5.12
2023-01-17T08:15:55.099Z,-5.01
2023-01-17T08:21:20.347Z,-5.08
2023-01-17T08:26:43.000Z,-4.98
2023-01-17T08:32:05.368Z,-5.00
2023-01-17T08:37:27.596Z,-4.98
2023-01-17T08:42:57.819Z,-5.00
2023-01-17T08:48:20.074Z,-4.91
2023-01-17T08:53:42.507Z,-4.85
2023-01-17T08:59:05.031Z,-4.87
2023-01-17T09:04:27.581Z,-4.81
2023-01-17T09:09:53.549Z,-4.79
2023-01-17T09:15:18.568Z,-4.80
2023-01-17T09:20:41.061Z,-4.67
2023-01-17T09:26:03.594Z,-4.73
2023-01-17T09:49:21.545Z,-4.85
2023-01-17T09:54:48.000Z,-4.86
2023-01-17T10:00:37.282Z,-4.83
2023-01-17T10:06:20.740Z,-4.87
2023-01-17T10:11:52.240Z,-4.80
2023-01-17T10:17:39.822Z,-4.88
2023-01-17T10:23:18.779Z,-4.83
2023-01-17T10:28:49.576Z,-4.79
2023-01-17T10:34:38.417Z,-4.74
2023-01-17T10:40:14.799Z,-4.61
2023-01-17T10:45:43.967Z,-4.59
2023-01-17T10:51:35.268Z,-4.60
2023-01-17T10:56:59.201Z,-4.62
2023-01-17T11:02:26.713Z,-4.51
2023-01-17T11:08:09.390Z,-4.52
2023-01-17T11:13:34.957Z,-4.51
2023-01-17T11:19:35.990Z,-4.62
2023-01-17T11:25:00.633Z,-4.62
2023-01-17T11:30:26.740Z,-4.55
2023-01-17T11:35:49.080Z,-4.46
2023-01-17T11:41:20.811Z,-4.59
2023-01-17T11:46:43.499Z,-4.61
2023-01-17T11:52:30.272Z,-4.58
2023-01-17T11:57:52.513Z,-4.73
2023-01-17T12:03:33.677Z,-4.64
2023-01-17T12:09:23.440Z,-4.59
2023-01-17T12:15:06.872Z,-4.57
2023-01-17T12:20:45.280Z,-4.63
2023-01-17T12:26:26.531Z,-4.69
2023-01-17T12:32:12.659Z,-4.68
2023-01-17T12:37:42.289Z,-4.55
2023-01-17T12:43:15.100Z,-4.53
2023-01-17T12:48:39.782Z,-4.58
2023-01-17T12:54:04.874Z,-4.50
2023-01-17T12:59:32.973Z,-4.55
2023-01-17T13:05:06.654Z,-4.52
2023-01-17T13:10:35.925Z,-4.63
2023-01-17T13:16:05.833Z,-4.57
2023-01-17T13:21:35.976Z,-4.55
2023-01-17T13:27:27.121Z,-4.53
2023-01-17T13:33:07.873Z,-4.56
2023-01-17T13:39:20.812Z,-4.55
2023-01-17T13:44:45.929Z,-4.60
2023-01-17T13:50:39.753Z,-4.44
2023-01-17T13:56:20.685Z,-4.45
2023-01-17T14:02:25.629Z,-4.46
2023-01-17T14:07:58.260Z,-4.38
2023-01-17T14:13:37.350Z,-4.34
2023-01-17T14:18:59.417Z,-4.24
2023-01-17T14:24:21.976Z,-4.32
2023-01-17T14:29:47.231Z,-4.16
2023-01-17T14:35:24.117Z,-4.18
2023-01-17T14:40:55.952Z,-4.19
2023-01-17T14:46:31.660Z,-4.09
2023-01-17T14:52:04.340Z,-4.08
2023-01-17T14:57:29.193Z,-4.02
2023-01-17T15:02:53.861Z,-3.90
2023-01-17T15:08:19.280Z,-3.88
2023-01-17T15:13:47.951Z,-3.84
2023-01-17T15:19:15.128Z,-3.86
2023-01-17T15:24:42.369Z,-3.72
2023-01-17T15:30:06.988Z,-3.82
2023-01-17T15:35:30.188Z,-3.71
2023-01-17T15:40:52.540Z,-3.74
2023-01-17T15:46:23.573Z,-3.64
2023-01-17T15:52:15.767Z,-3.58
2023-01-17T15:57:39.336Z,-3.54
2023-01-17T16:03:01.307Z,-3.51
2023-01-17T16:08:25.076Z,-3.49
2023-01-17T16:13:49.023Z,-3.38
2023-01-17T16:19:11.130Z,-3.33
2023-01-17T16:24:32.999Z,-3.32
2023-01-17T16:29:56.446Z,-3.34
2023-01-17T16:35:33.005Z,-3.26
2023-01-17T16:40:58.752Z,-3.18
2023-01-17T16:46:21.641Z,-3.16
2023-01-17T16:51:48.287Z,-3.08
2023-01-17T16:57:12.973Z,-3.07
2023-01-17T17:02:43.538Z,-2.90
2023-01-17T17:08:08.061Z,-2.92
2023-01-17T17:13:34.757Z,-2.93
2023-01-17T17:19:02.199Z,-2.84
2023-01-17T17:24:24.600Z,-2.70
2023-01-17T17:29:47.054Z,-2.68
2023-01-17T17:35:09.792Z,-2.73
2023-01-17T17:40:31.535Z,-2.68
2023-01-17T17:45:53.567Z,-2.65
2023-01-17T17:51:30.749Z,-2.64
2023-01-17T17:56:52.690Z,-2.66
2023-01-17T18:02:14.691Z,-2.69
2023-01-17T18:07:36.547Z,-2.63
2023-01-17T18:13:03.176Z,-2.67
2023-01-17T18:18:25.417Z,-2.64
2023-01-17T18:23:55.928Z,-2.53
2023-01-17T18:29:23.030Z,-2.67
2023-01-17T18:34:45.654Z,-2.51
2023-01-17T18:40:08.026Z,-2.60
2023-01-17T18:45:30.136Z,-2.51
2023-01-17T18:51:00.178Z,-2.53
2023-01-17T18:56:30.340Z,-2.59
2023-01-17T19:01:52.861Z,-2.53
2023-01-17T19:07:15.547Z,-2.62
2023-01-17T19:12:37.870Z,-2.68
2023-01-17T19:18:00.348Z,-2.59
2023-01-17T19:23:23.808Z,-2.52
2023-01-17T19:28:49.506Z,-2.51
2023-01-17T19:34:14.453Z,-2.52
2023-01-17T19:39:36.583Z,-2.47
2023-01-17T19:45:00.935Z,-2.52
2023-01-17T19:50:23.577Z,-2.49
2023-01-17T19:55:47.534Z,-2.47
2023-01-17T20:01:18.363Z,-2.34
2023-01-17T20:06:41.057Z,-2.34
2023-01-17T20:12:06.612Z,-2.40
2023-01-17T20:17:34.594Z,-2.33
2023-01-17T20:22:57.389Z,-2.29
2023-01-17T20:28:19.428Z,-2.33
2023-01-17T20:33:42.449Z,-2.13
2023-01-17T20:39:06.312Z,-2.15
2023-01-17T20:44:28.243Z,-2.09
2023-01-17T20:49:49.807Z,-2.09
2023-01-17T20:55:11.927Z,-2.07
2023-01-17T21:00:38.328Z,-2.02
2023-01-17T21:06:05.596Z,-2.02
2023-01-17T21:11:31.288Z,-2.10
2023-01-17T21:16:53.207Z,-2.02
2023-01-17T21:22:17.291Z,-2.05
2023-01-17T21:27:42.227Z,-2.00
2023-01-17T21:33:08.120Z,-2.04
2023-01-17T21:38:35.483Z,-2.04
2023-01-17T21:44:36.891Z,-1.93
2023-01-17T21:50:02.204Z,-1.92
2023-01-17T21:55:48.472Z,-1.97
2023-01-17T22:01:23.089Z,-1.93
2023-01-17T22:06:45.548Z,-1.86
2023-01-17T22:12:08.019Z,-1.89
2023-01-17T22:17:31.217Z,-1.95
2023-01-17T22:22:53.576Z,-1.90
2023-01-17T22:28:17.801Z,-1.85
2023-01-17T22:33:46.740Z,-1.81
2023-01-17T22:39:14.020Z,-1.77
2023-01-17T22:44:38.800Z,-1.87
2023-01-17T22:50:04.989Z,-1.88
2023-01-17T22:55:27.227Z,-1.75
2023-01-17T23:00:50.190Z,-1.80
2023-01-17T23:06:16.019Z,-1.89
2023-01-17T23:11:46.780Z,-1.76
2023-01-17T23:17:28.259Z,-1.79
2023-01-17T23:22:56.649Z,-1.68
2023-01-17T23:28:55.430Z,-1.68
2023-01-17T23:34:17.959Z,-1.68
2023-01-17T23:39:40.509Z,-1.72
2023-01-17T23:45:02.641Z,-1.75
2023-01-17T23:50:24.727Z,-1.67
2023-01-17T23:55:47.360Z,-1.73
